sensor_id;sensor_type;location;lat;lon;timestamp;P1;durP1;ratioP1;P2;durP2;ratioP2
62584;SDS011;48643;51.670;5.808;2022-12-18T00:02:14;13.38;;;7.72;;
62584;SDS011;48643;51.670;5.808;2022-12-18T00:04:41;14.23;;;8.32;;
62584;SDS011;48643;51.670;5.808;2022-12-18T00:07:08;13.50;;;8.20;;
62584;SDS011;48643;51.670;5.808;2022-12-18T00:09:35;11.77;;;7.68;;
62584;SDS011;48643;51.670;5.808;2022-12-18T00:12:06;13.18;;;7.68;;
62584;SDS011;48643;51.670;5.808;2022-12-18T00:14:41;13.05;;;8.35;;
62584;SDS011;48643;51.670;5.808;2022-12-18T00:17:08;11.57;;;7.43;;
62584;SDS011;48643;51.670;5.808;2022-12-18T00:19:35;12.77;;;7.70;;
62584;SDS011;48643;51.670;5.808;2022-12-18T00:22:02;13.73;;;8.18;;
62584;SDS011;48643;51.670;5.808;2022-12-18T00:24:29;13.65;;;8.25;;
62584;SDS011;48643;51.670;5.808;2022-12-18T00:26:56;12.77;;;8.05;;
62584;SDS011;48643;51.670;5.808;2022-12-18T00:29:23;15.13;;;8.27;;
62584;SDS011;48643;51.670;5.808;2022-12-18T00:31:49;17.15;;;8.48;;
62584;SDS011;48643;51.670;5.808;2022-12-18T00:34:16;14.68;;;8.10;;
62584;SDS011;48643;51.670;5.808;2022-12-18T00:36:43;14.13;;;8.40;;
62584;SDS011;48643;51.670;5.808;2022-12-18T00:39:11;14.90;;;8.10;;
62584;SDS011;48643;51.670;5.808;2022-12-18T00:41:38;13.07;;;8.38;;
62584;SDS011;48643;51.670;5.808;2022-12-18T00:44:24;12.48;;;8.18;;
62584;SDS011;48643;51.670;5.808;2022-12-18T00:46:51;13.25;;;8.20;;
62584;SDS011;48643;51.670;5.808;2022-12-18T00:49:18;13.05;;;8.00;;
62584;SDS011;48643;51.670;5.808;2022-12-18T00:51:46;15.27;;;8.07;;
62584;SDS011;48643;51.670;5.808;2022-12-18T00:54:14;13.30;;;8.07;;
62584;SDS011;48643;51.670;5.808;2022-12-18T00:56:41;14.25;;;8.32;;
62584;SDS011;48643;51.670;5.808;2022-12-18T00:59:15;13.50;;;8.18;;
62584;SDS011;48643;51.670;5.808;2022-12-18T01:01:43;13.70;;;8.63;;
62584;SDS011;48643;51.670;5.808;2022-12-18T01:04:11;14.68;;;8.48;;
62584;SDS011;48643;51.670;5.808;2022-12-18T01:06:38;14.43;;;8.68;;
62584;SDS011;48643;51.670;5.808;2022-12-18T01:09:06;14.37;;;8.93;;
62584;SDS011;48643;51.670;5.808;2022-12-18T01:11:35;13.65;;;8.25;;
62584;SDS011;48643;51.670;5.808;2022-12-18T01:14:03;14.50;;;8.50;;
62584;SDS011;48643;51.670;5.808;2022-12-18T01:16:30;12.02;;;8.00;;
62584;SDS011;48643;51.670;5.808;2022-12-18T01:18:57;13.38;;;8.48;;
62584;SDS011;48643;51.670;5.808;2022-12-18T01:21:26;14.73;;;9.10;;
62584;SDS011;48643;51.670;5.808;2022-12-18T01:23:53;14.32;;;8.68;;
62584;SDS011;48643;51.670;5.808;2022-12-18T01:26:22;13.20;;;8.07;;
62584;SDS011;48643;51.670;5.808;2022-12-18T01:28:50;13.85;;;8.50;;
62584;SDS011;48643;51.670;5.808;2022-12-18T01:31:20;15.18;;;8.77;;
62584;SDS011;48643;51.670;5.808;2022-12-18T01:33:48;14.52;;;8.85;;
62584;SDS011;48643;51.670;5.808;2022-12-18T01:36:37;14.27;;;8.60;;
62584;SDS011;48643;51.670;5.808;2022-12-18T01:39:11;13.70;;;8.40;;
62584;SDS011;48643;51.670;5.808;2022-12-18T01:41:41;14.20;;;8.15;;
62584;SDS011;48643;51.670;5.808;2022-12-18T01:47:44;12.80;;;7.85;;
62584;SDS011;48643;51.670;5.808;2022-12-18T01:50:49;13.88;;;8.02;;
62584;SDS011;48643;51.670;5.808;2022-12-18T01:53:17;14.18;;;8.35;;
62584;SDS011;48643;51.670;5.808;2022-12-18T01:55:47;14.00;;;8.25;;
62584;SDS011;48643;51.670;5.808;2022-12-18T01:58:16;13.45;;;8.38;;
62584;SDS011;48643;51.670;5.808;2022-12-18T02:00:44;13.50;;;8.10;;
62584;SDS011;48643;51.670;5.808;2022-12-18T02:03:11;14.93;;;8.43;;
62584;SDS011;48643;51.670;5.808;2022-12-18T02:05:46;13.10;;;8.30;;
62584;SDS011;48643;51.670;5.808;2022-12-18T02:08:27;13.37;;;7.93;;
62584;SDS011;48643;51.670;5.808;2022-12-18T02:14:02;13.35;;;8.30;;
62584;SDS011;48643;51.670;5.808;2022-12-18T02:17:06;13.48;;;8.20;;
62584;SDS011;48643;51.670;5.808;2022-12-18T02:22:14;11.85;;;7.95;;
62584;SDS011;48643;51.670;5.808;2022-12-18T02:25:16;12.68;;;7.88;;
62584;SDS011;48643;51.670;5.808;2022-12-18T02:28:06;13.98;;;8.35;;
62584;SDS011;48643;51.670;5.808;2022-12-18T02:30:36;11.35;;;7.75;;
62584;SDS011;48643;51.670;5.808;2022-12-18T02:33:04;12.23;;;7.63;;
62584;SDS011;48643;51.670;5.808;2022-12-18T02:35:33;12.60;;;8.18;;
62584;SDS011;48643;51.670;5.808;2022-12-18T02:38:01;11.70;;;7.47;;
62584;SDS011;48643;51.670;5.808;2022-12-18T02:40:33;11.90;;;7.82;;
62584;SDS011;48643;51.670;5.808;2022-12-18T02:43:02;11.13;;;7.60;;
62584;SDS011;48643;51.670;5.808;2022-12-18T02:45:53;13.00;;;8.27;;
62584;SDS011;48643;51.670;5.808;2022-12-18T02:48:24;12.88;;;7.75;;
62584;SDS011;48643;51.670;5.808;2022-12-18T02:50:59;12.30;;;7.70;;
62584;SDS011;48643;51.670;5.808;2022-12-18T02:53:37;11.75;;;7.55;;
62584;SDS011;48643;51.670;5.808;2022-12-18T02:56:18;12.65;;;7.10;;
62584;SDS011;48643;51.670;5.808;2022-12-18T02:58:55;11.13;;;7.20;;
62584;SDS011;48643;51.670;5.808;2022-12-18T03:07:08;12.02;;;7.35;;
62584;SDS011;48643;51.670;5.808;2022-12-18T03:09:39;12.30;;;7.40;;
62584;SDS011;48643;51.670;5.808;2022-12-18T03:12:14;12.50;;;7.70;;
62584;SDS011;48643;51.670;5.808;2022-12-18T03:17:48;11.00;;;7.60;;
62584;SDS011;48643;51.670;5.808;2022-12-18T03:20:19;11.38;;;7.35;;
62584;SDS011;48643;51.670;5.808;2022-12-18T03:22:49;11.38;;;7.28;;
62584;SDS011;48643;51.670;5.808;2022-12-18T03:25:19;11.13;;;7.28;;
62584;SDS011;48643;51.670;5.808;2022-12-18T03:27:47;11.13;;;7.20;;
62584;SDS011;48643;51.670;5.808;2022-12-18T03:30:19;10.95;;;7.18;;
62584;SDS011;48643;51.670;5.808;2022-12-18T03:32:53;10.75;;;6.82;;
62584;SDS011;48643;51.670;5.808;2022-12-18T03:35:29;11.93;;;7.35;;
62584;SDS011;48643;51.670;5.808;2022-12-18T03:37:58;11.57;;;6.88;;
62584;SDS011;48643;51.670;5.808;2022-12-18T03:40:27;10.65;;;6.90;;
62584;SDS011;48643;51.670;5.808;2022-12-18T03:43:00;10.07;;;7.07;;
62584;SDS011;48643;51.670;5.808;2022-12-18T03:45:36;11.15;;;7.28;;
62584;SDS011;48643;51.670;5.808;2022-12-18T03:48:07;10.52;;;6.57;;
62584;SDS011;48643;51.670;5.808;2022-12-18T03:50:46;11.15;;;7.10;;
62584;SDS011;48643;51.670;5.808;2022-12-18T03:53:47;10.73;;;6.80;;
62584;SDS011;48643;51.670;5.808;2022-12-18T03:56:25;11.27;;;7.15;;
62584;SDS011;48643;51.670;5.808;2022-12-18T03:58:55;12.77;;;7.00;;
62584;SDS011;48643;51.670;5.808;2022-12-18T04:01:28;11.45;;;6.88;;
62584;SDS011;48643;51.670;5.808;2022-12-18T04:03:59;10.70;;;6.50;;
62584;SDS011;48643;51.670;5.808;2022-12-18T04:06:31;11.20;;;6.93;;
62584;SDS011;48643;51.670;5.808;2022-12-18T04:09:01;10.93;;;6.45;;
62584;SDS011;48643;51.670;5.808;2022-12-18T04:13:59;9.65;;;6.63;;
62584;SDS011;48643;51.670;5.808;2022-12-18T04:16:31;9.93;;;6.60;;
62584;SDS011;48643;51.670;5.808;2022-12-18T04:19:01;8.85;;;6.15;;
62584;SDS011;48643;51.670;5.808;2022-12-18T04:21:32;10.57;;;6.60;;
62584;SDS011;48643;51.670;5.808;2022-12-18T04:23:59;9.63;;;6.68;;
62584;SDS011;48643;51.670;5.808;2022-12-18T04:26:27;9.02;;;6.00;;
62584;SDS011;48643;51.670;5.808;2022-12-18T04:29:14;10.45;;;6.60;;
62584;SDS011;48643;51.670;5.808;2022-12-18T04:31:41;10.13;;;6.00;;
62584;SDS011;48643;51.670;5.808;2022-12-18T04:34:08;9.27;;;6.38;;
62584;SDS011;48643;51.670;5.808;2022-12-18T04:36:41;8.68;;;5.88;;
62584;SDS011;48643;51.670;5.808;2022-12-18T04:39:08;9.20;;;6.20;;
62584;SDS011;48643;51.670;5.808;2022-12-18T04:41:35;9.25;;;6.43;;
62584;SDS011;48643;51.670;5.808;2022-12-18T04:44:04;8.93;;;6.03;;
62584;SDS011;48643;51.670;5.808;2022-12-18T04:46:31;9.05;;;6.03;;
62584;SDS011;48643;51.670;5.808;2022-12-18T04:48:58;9.45;;;6.03;;
62584;SDS011;48643;51.670;5.808;2022-12-18T04:51:25;9.15;;;6.10;;
62584;SDS011;48643;51.670;5.808;2022-12-18T04:53:52;9.10;;;6.10;;
62584;SDS011;48643;51.670;5.808;2022-12-18T04:56:19;9.30;;;6.07;;
62584;SDS011;48643;51.670;5.808;2022-12-18T04:58:46;8.93;;;6.07;;
62584;SDS011;48643;51.670;5.808;2022-12-18T05:01:14;8.73;;;5.90;;
62584;SDS011;48643;51.670;5.808;2022-12-18T05:03:42;9.18;;;6.05;;
62584;SDS011;48643;51.670;5.808;2022-12-18T05:06:10;9.30;;;5.90;;
62584;SDS011;48643;51.670;5.808;2022-12-18T05:08:37;7.82;;;5.57;;
62584;SDS011;48643;51.670;5.808;2022-12-18T05:11:09;9.60;;;5.78;;
62584;SDS011;48643;51.670;5.808;2022-12-18T05:13:37;11.93;;;6.15;;
62584;SDS011;48643;51.670;5.808;2022-12-18T05:16:05;7.93;;;5.70;;
62584;SDS011;48643;51.670;5.808;2022-12-18T05:18:32;9.32;;;5.97;;
62584;SDS011;48643;51.670;5.808;2022-12-18T05:21:00;8.40;;;5.65;;
62584;SDS011;48643;51.670;5.808;2022-12-18T05:23:27;9.80;;;5.53;;
62584;SDS011;48643;51.670;5.808;2022-12-18T05:25:55;8.57;;;5.70;;
62584;SDS011;48643;51.670;5.808;2022-12-18T05:28:24;7.60;;;5.30;;
62584;SDS011;48643;51.670;5.808;2022-12-18T05:31:00;8.90;;;5.78;;
62584;SDS011;48643;51.670;5.808;2022-12-18T05:33:29;8.98;;;5.70;;
62584;SDS011;48643;51.670;5.808;2022-12-18T05:38:25;8.35;;;5.18;;
62584;SDS011;48643;51.670;5.808;2022-12-18T05:40:53;7.82;;;5.38;;
62584;SDS011;48643;51.670;5.808;2022-12-18T05:43:21;8.18;;;5.43;;
62584;SDS011;48643;51.670;5.808;2022-12-18T05:45:48;8.68;;;5.63;;
62584;SDS011;48643;51.670;5.808;2022-12-18T05:48:16;8.10;;;5.45;;
62584;SDS011;48643;51.670;5.808;2022-12-18T05:50:43;7.32;;;5.30;;
62584;SDS011;48643;51.670;5.808;2022-12-18T05:53:14;7.45;;;5.05;;
62584;SDS011;48643;51.670;5.808;2022-12-18T05:55:43;7.05;;;5.20;;
62584;SDS011;48643;51.670;5.808;2022-12-18T05:58:11;6.90;;;5.22;;
62584;SDS011;48643;51.670;5.808;2022-12-18T06:00:39;7.05;;;4.82;;
62584;SDS011;48643;51.670;5.808;2022-12-18T06:03:08;8.07;;;5.23;;
62584;SDS011;48643;51.670;5.808;2022-12-18T06:05:40;7.30;;;5.30;;
62584;SDS011;48643;51.670;5.808;2022-12-18T06:08:08;7.40;;;5.10;;
62584;SDS011;48643;51.670;5.808;2022-12-18T06:10:36;8.48;;;5.35;;
62584;SDS011;48643;51.670;5.808;2022-12-18T06:13:03;9.05;;;5.43;;
62584;SDS011;48643;51.670;5.808;2022-12-18T06:15:30;8.60;;;4.97;;
62584;SDS011;48643;51.670;5.808;2022-12-18T06:17:57;7.38;;;5.07;;
62584;SDS011;48643;51.670;5.808;2022-12-18T06:20:24;7.15;;;4.90;;
62584;SDS011;48643;51.670;5.808;2022-12-18T06:22:58;7.65;;;5.22;;
62584;SDS011;48643;51.670;5.808;2022-12-18T06:25:26;7.63;;;5.07;;
62584;SDS011;48643;51.670;5.808;2022-12-18T06:27:52;8.13;;;5.30;;
62584;SDS011;48643;51.670;5.808;2022-12-18T06:30:20;8.35;;;5.22;;
62584;SDS011;48643;51.670;5.808;2022-12-18T06:32:47;7.32;;;5.25;;
62584;SDS011;48643;51.670;5.808;2022-12-18T06:35:21;9.27;;;5.07;;
62584;SDS011;48643;51.670;5.808;2022-12-18T06:37:49;7.53;;;5.00;;
62584;SDS011;48643;51.670;5.808;2022-12-18T06:40:16;7.65;;;4.78;;
62584;SDS011;48643;51.670;5.808;2022-12-18T06:42:43;6.07;;;4.30;;
62584;SDS011;48643;51.670;5.808;2022-12-18T06:45:09;7.80;;;4.80;;
62584;SDS011;48643;51.670;5.808;2022-12-18T06:47:37;7.13;;;4.65;;
62584;SDS011;48643;51.670;5.808;2022-12-18T06:50:04;6.25;;;4.30;;
62584;SDS011;48643;51.670;5.808;2022-12-18T06:52:32;6.18;;;4.40;;
62584;SDS011;48643;51.670;5.808;2022-12-18T06:54:59;6.90;;;4.90;;
62584;SDS011;48643;51.670;5.808;2022-12-18T06:57:26;6.97;;;4.65;;
62584;SDS011;48643;51.670;5.808;2022-12-18T06:59:53;6.38;;;4.57;;
62584;SDS011;48643;51.670;5.808;2022-12-18T07:02:20;6.15;;;4.05;;
62584;SDS011;48643;51.670;5.808;2022-12-18T07:04:47;5.97;;;4.30;;
62584;SDS011;48643;51.670;5.808;2022-12-18T07:07:15;5.85;;;4.10;;
62584;SDS011;48643;51.670;5.808;2022-12-18T07:09:42;6.85;;;4.38;;
62584;SDS011;48643;51.670;5.808;2022-12-18T07:12:09;6.22;;;4.20;;
62584;SDS011;48643;51.670;5.808;2022-12-18T07:14:36;7.03;;;4.47;;
62584;SDS011;48643;51.670;5.808;2022-12-18T07:17:03;5.97;;;4.43;;
62584;SDS011;48643;51.670;5.808;2022-12-18T07:19:31;5.73;;;4.30;;
62584;SDS011;48643;51.670;5.808;2022-12-18T07:21:58;6.97;;;4.30;;
62584;SDS011;48643;51.670;5.808;2022-12-18T07:24:25;6.03;;;4.10;;
62584;SDS011;48643;51.670;5.808;2022-12-18T07:26:52;7.25;;;4.25;;
62584;SDS011;48643;51.670;5.808;2022-12-18T07:29:20;6.72;;;4.10;;
62584;SDS011;48643;51.670;5.808;2022-12-18T07:31:47;5.75;;;4.00;;
62584;SDS011;48643;51.670;5.808;2022-12-18T07:34:14;6.30;;;4.30;;
62584;SDS011;48643;51.670;5.808;2022-12-18T07:36:41;6.25;;;4.00;;
62584;SDS011;48643;51.670;5.808;2022-12-18T07:39:10;6.30;;;4.05;;
62584;SDS011;48643;51.670;5.808;2022-12-18T07:41:37;6.55;;;4.18;;
62584;SDS011;48643;51.670;5.808;2022-12-18T07:44:14;6.57;;;4.10;;
62584;SDS011;48643;51.670;5.808;2022-12-18T07:46:41;5.40;;;3.80;;
62584;SDS011;48643;51.670;5.808;2022-12-18T07:49:08;6.88;;;4.00;;
62584;SDS011;48643;51.670;5.808;2022-12-18T07:51:35;5.88;;;3.90;;
62584;SDS011;48643;51.670;5.808;2022-12-18T07:54:02;5.40;;;3.83;;
62584;SDS011;48643;51.670;5.808;2022-12-18T07:56:29;7.00;;;4.32;;
62584;SDS011;48643;51.670;5.808;2022-12-18T07:58:57;9.38;;;6.28;;
62584;SDS011;48643;51.670;5.808;2022-12-18T08:01:25;9.48;;;5.95;;
62584;SDS011;48643;51.670;5.808;2022-12-18T08:03:52;9.77;;;6.25;;
62584;SDS011;48643;51.670;5.808;2022-12-18T08:06:19;16.30;;;5.55;;
62584;SDS011;48643;51.670;5.808;2022-12-18T08:08:50;10.90;;;5.25;;
62584;SDS011;48643;51.670;5.808;2022-12-18T08:11:21;8.00;;;5.20;;
62584;SDS011;48643;51.670;5.808;2022-12-18T08:13:48;8.07;;;5.30;;
62584;SDS011;48643;51.670;5.808;2022-12-18T08:16:15;7.45;;;4.82;;
62584;SDS011;48643;51.670;5.808;2022-12-18T08:18:43;12.40;;;4.78;;
62584;SDS011;48643;51.670;5.808;2022-12-18T08:21:14;6.22;;;4.22;;
62584;SDS011;48643;51.670;5.808;2022-12-18T08:23:42;7.40;;;4.35;;
62584;SDS011;48643;51.670;5.808;2022-12-18T08:26:10;7.35;;;4.25;;
62584;SDS011;48643;51.670;5.808;2022-12-18T08:28:38;6.78;;;4.28;;
62584;SDS011;48643;51.670;5.808;2022-12-18T08:31:05;8.10;;;4.68;;
62584;SDS011;48643;51.670;5.808;2022-12-18T08:33:33;6.28;;;4.03;;
62584;SDS011;48643;51.670;5.808;2022-12-18T08:36:01;7.25;;;4.18;;
62584;SDS011;48643;51.670;5.808;2022-12-18T08:38:29;6.70;;;3.83;;
62584;SDS011;48643;51.670;5.808;2022-12-18T08:41:07;6.20;;;3.72;;
62584;SDS011;48643;51.670;5.808;2022-12-18T08:43:35;5.60;;;3.90;;
62584;SDS011;48643;51.670;5.808;2022-12-18T08:46:21;6.22;;;3.80;;
62584;SDS011;48643;51.670;5.808;2022-12-18T08:48:50;5.85;;;3.75;;
62584;SDS011;48643;51.670;5.808;2022-12-18T08:51:17;5.18;;;3.50;;
62584;SDS011;48643;51.670;5.808;2022-12-18T08:53:45;5.35;;;3.58;;
62584;SDS011;48643;51.670;5.808;2022-12-18T08:56:13;5.43;;;3.65;;
62584;SDS011;48643;51.670;5.808;2022-12-18T08:58:40;5.15;;;3.38;;
62584;SDS011;48643;51.670;5.808;2022-12-18T09:01:09;5.55;;;3.60;;
62584;SDS011;48643;51.670;5.808;2022-12-18T09:03:37;5.20;;;3.45;;
62584;SDS011;48643;51.670;5.808;2022-12-18T09:06:05;5.95;;;3.40;;
62584;SDS011;48643;51.670;5.808;2022-12-18T09:08:32;5.15;;;3.45;;
62584;SDS011;48643;51.670;5.808;2022-12-18T09:11:00;5.43;;;3.33;;
62584;SDS011;48643;51.670;5.808;2022-12-18T09:13:27;4.97;;;3.42;;
62584;SDS011;48643;51.670;5.808;2022-12-18T09:15:54;6.68;;;3.38;;
62584;SDS011;48643;51.670;5.808;2022-12-18T09:18:22;4.90;;;3.20;;
62584;SDS011;48643;51.670;5.808;2022-12-18T09:20:49;5.55;;;3.40;;
62584;SDS011;48643;51.670;5.808;2022-12-18T09:23:18;4.43;;;3.10;;
62584;SDS011;48643;51.670;5.808;2022-12-18T09:25:46;4.95;;;3.20;;
62584;SDS011;48643;51.670;5.808;2022-12-18T09:28:15;5.85;;;3.70;;
62584;SDS011;48643;51.670;5.808;2022-12-18T09:30:44;5.30;;;3.58;;
62584;SDS011;48643;51.670;5.808;2022-12-18T09:33:13;7.50;;;5.15;;
62584;SDS011;48643;51.670;5.808;2022-12-18T09:35:41;5.10;;;3.72;;
62584;SDS011;48643;51.670;5.808;2022-12-18T09:38:12;11.37;;;4.00;;
62584;SDS011;48643;51.670;5.808;2022-12-18T09:40:49;5.65;;;3.85;;
62584;SDS011;48643;51.670;5.808;2022-12-18T09:43:19;6.90;;;3.90;;
62584;SDS011;48643;51.670;5.808;2022-12-18T09:45:50;8.30;;;3.70;;
62584;SDS011;48643;51.670;5.808;2022-12-18T09:48:23;5.60;;;4.05;;
62584;SDS011;48643;51.670;5.808;2022-12-18T09:50:55;5.93;;;3.63;;
62584;SDS011;48643;51.670;5.808;2022-12-18T09:53:27;7.00;;;4.15;;
62584;SDS011;48643;51.670;5.808;2022-12-18T09:55:57;6.07;;;3.90;;
62584;SDS011;48643;51.670;5.808;2022-12-18T10:01:07;6.80;;;3.92;;
62584;SDS011;48643;51.670;5.808;2022-12-18T10:03:37;6.38;;;3.60;;
62584;SDS011;48643;51.670;5.808;2022-12-18T10:06:10;11.32;;;4.00;;
62584;SDS011;48643;51.670;5.808;2022-12-18T10:08:46;5.82;;;3.63;;
62584;SDS011;48643;51.670;5.808;2022-12-18T10:22:26;8.68;;;4.07;;
62584;SDS011;48643;51.670;5.808;2022-12-18T10:27:43;12.80;;;4.50;;
62584;SDS011;48643;51.670;5.808;2022-12-18T10:30:15;12.70;;;4.25;;
62584;SDS011;48643;51.670;5.808;2022-12-18T10:32:43;11.50;;;4.60;;
62584;SDS011;48643;51.670;5.808;2022-12-18T10:35:20;13.27;;;4.45;;
62584;SDS011;48643;51.670;5.808;2022-12-18T10:40:56;10.93;;;4.60;;
62584;SDS011;48643;51.670;5.808;2022-12-18T10:43:33;11.73;;;4.15;;
62584;SDS011;48643;51.670;5.808;2022-12-18T10:51:47;7.68;;;4.03;;
62584;SDS011;48643;51.670;5.808;2022-12-18T10:54:12;10.23;;;4.13;;
62584;SDS011;48643;51.670;5.808;2022-12-18T10:56:42;8.15;;;3.80;;
62584;SDS011;48643;51.670;5.808;2022-12-18T10:59:12;8.18;;;4.22;;
62584;SDS011;48643;51.670;5.808;2022-12-18T11:01:51;9.82;;;4.20;;
62584;SDS011;48643;51.670;5.808;2022-12-18T11:04:26;10.45;;;4.03;;
62584;SDS011;48643;51.670;5.808;2022-12-18T11:06:59;9.85;;;4.20;;
62584;SDS011;48643;51.670;5.808;2022-12-18T11:09:30;8.88;;;3.92;;
62584;SDS011;48643;51.670;5.808;2022-12-18T11:11:59;7.45;;;3.80;;
62584;SDS011;48643;51.670;5.808;2022-12-18T11:15:02;11.07;;;4.60;;
62584;SDS011;48643;51.670;5.808;2022-12-18T11:17:24;6.85;;;4.32;;
62584;SDS011;48643;51.670;5.808;2022-12-18T11:22:54;10.77;;;5.10;;
62584;SDS011;48643;51.670;5.808;2022-12-18T11:25:27;11.45;;;4.97;;
62584;SDS011;48643;51.670;5.808;2022-12-18T11:28:02;10.30;;;4.40;;
62584;SDS011;48643;51.670;5.808;2022-12-18T11:30:48;8.82;;;4.78;;
62584;SDS011;48643;51.670;5.808;2022-12-18T11:33:16;8.23;;;4.60;;
62584;SDS011;48643;51.670;5.808;2022-12-18T11:35:53;7.57;;;4.10;;
62584;SDS011;48643;51.670;5.808;2022-12-18T11:38:23;8.60;;;4.05;;
62584;SDS011;48643;51.670;5.808;2022-12-18T11:41:00;9.32;;;4.22;;
62584;SDS011;48643;51.670;5.808;2022-12-18T11:43:39;11.48;;;4.22;;
62584;SDS011;48643;51.670;5.808;2022-12-18T11:49:15;7.00;;;4.18;;
62584;SDS011;48643;51.670;5.808;2022-12-18T11:51:51;9.15;;;4.00;;
62584;SDS011;48643;51.670;5.808;2022-12-18T11:54:19;6.57;;;4.22;;
62584;SDS011;48643;51.670;5.808;2022-12-18T11:56:51;6.03;;;3.90;;
62584;SDS011;48643;51.670;5.808;2022-12-18T11:59:32;7.28;;;3.65;;
62584;SDS011;48643;51.670;5.808;2022-12-18T12:02:46;6.15;;;3.80;;
62584;SDS011;48643;51.670;5.808;2022-12-18T12:08:03;7.25;;;3.70;;
62584;SDS011;48643;51.670;5.808;2022-12-18T12:21:41;9.27;;;4.13;;
62584;SDS011;48643;51.670;5.808;2022-12-18T12:24:36;14.63;;;4.03;;
62584;SDS011;48643;51.670;5.808;2022-12-18T12:35:18;8.18;;;4.20;;
62584;SDS011;48643;51.670;5.808;2022-12-18T12:40:49;8.02;;;4.22;;
62584;SDS011;48643;51.670;5.808;2022-12-18T12:43:31;7.93;;;5.10;;
62584;SDS011;48643;51.670;5.808;2022-12-18T12:46:04;12.75;;;4.47;;
62584;SDS011;48643;51.670;5.808;2022-12-18T12:48:55;9.90;;;5.30;;
62584;SDS011;48643;51.670;5.808;2022-12-18T12:53:52;11.93;;;5.22;;
62584;SDS011;48643;51.670;5.808;2022-12-18T12:56:20;13.23;;;5.90;;
62584;SDS011;48643;51.670;5.808;2022-12-18T13:01:38;11.68;;;5.63;;
62584;SDS011;48643;51.670;5.808;2022-12-18T13:07:16;12.00;;;4.95;;
62584;SDS011;48643;51.670;5.808;2022-12-18T13:13:08;12.02;;;5.18;;
62584;SDS011;48643;51.670;5.808;2022-12-18T13:15:38;12.18;;;5.20;;
62584;SDS011;48643;51.670;5.808;2022-12-18T13:20:36;12.20;;;5.00;;
62584;SDS011;48643;51.670;5.808;2022-12-18T13:25:50;10.55;;;4.78;;
62584;SDS011;48643;51.670;5.808;2022-12-18T13:31:57;8.63;;;4.78;;
62584;SDS011;48643;51.670;5.808;2022-12-18T13:34:22;10.93;;;5.10;;
62584;SDS011;48643;51.670;5.808;2022-12-18T13:36:56;14.57;;;4.35;;
62584;SDS011;48643;51.670;5.808;2022-12-18T13:39:44;7.78;;;4.60;;
62584;SDS011;48643;51.670;5.808;2022-12-18T13:44:59;8.68;;;4.85;;
62584;SDS011;48643;51.670;5.808;2022-12-18T13:47:33;8.73;;;4.88;;
62584;SDS011;48643;51.670;5.808;2022-12-18T13:50:02;11.23;;;4.50;;
62584;SDS011;48643;51.670;5.808;2022-12-18T13:52:37;8.02;;;4.70;;
62584;SDS011;48643;51.670;5.808;2022-12-18T13:55:07;8.23;;;4.65;;
62584;SDS011;48643;51.670;5.808;2022-12-18T13:57:40;11.15;;;4.97;;
62584;SDS011;48643;51.670;5.808;2022-12-18T14:02:44;7.65;;;4.35;;
62584;SDS011;48643;51.670;5.808;2022-12-18T14:05:22;9.85;;;4.65;;
62584;SDS011;48643;51.670;5.808;2022-12-18T14:08:04;8.60;;;4.50;;
62584;SDS011;48643;51.670;5.808;2022-12-18T14:10:35;7.65;;;4.40;;
62584;SDS011;48643;51.670;5.808;2022-12-18T14:13:20;7.53;;;4.22;;
62584;SDS011;48643;51.670;5.808;2022-12-18T14:15:54;8.00;;;4.60;;
62584;SDS011;48643;51.670;5.808;2022-12-18T14:18:24;6.57;;;4.35;;
62584;SDS011;48643;51.670;5.808;2022-12-18T14:20:55;7.45;;;4.30;;
62584;SDS011;48643;51.670;5.808;2022-12-18T14:23:37;7.00;;;4.38;;
62584;SDS011;48643;51.670;5.808;2022-12-18T14:26:25;6.47;;;4.18;;
62584;SDS011;48643;51.670;5.808;2022-12-18T14:28:56;7.57;;;4.50;;
62584;SDS011;48643;51.670;5.808;2022-12-18T14:31:28;7.28;;;4.10;;
62584;SDS011;48643;51.670;5.808;2022-12-18T14:33:56;6.40;;;4.10;;
62584;SDS011;48643;51.670;5.808;2022-12-18T14:36:24;8.10;;;4.00;;
62584;SDS011;48643;51.670;5.808;2022-12-18T14:41:20;6.43;;;4.13;;
62584;SDS011;48643;51.670;5.808;2022-12-18T14:43:48;8.18;;;4.40;;
62584;SDS011;48643;51.670;5.808;2022-12-18T14:49:14;8.20;;;4.38;;
62584;SDS011;48643;51.670;5.808;2022-12-18T14:52:05;5.97;;;4.18;;
62584;SDS011;48643;51.670;5.808;2022-12-18T14:54:34;7.85;;;3.92;;
62584;SDS011;48643;51.670;5.808;2022-12-18T14:57:05;8.90;;;4.35;;
62584;SDS011;48643;51.670;5.808;2022-12-18T14:59:52;6.82;;;4.30;;
62584;SDS011;48643;51.670;5.808;2022-12-18T15:02:21;7.03;;;4.47;;
62584;SDS011;48643;51.670;5.808;2022-12-18T15:05:14;5.57;;;4.03;;
62584;SDS011;48643;51.670;5.808;2022-12-18T15:20:40;5.72;;;4.03;;
62584;SDS011;48643;51.670;5.808;2022-12-18T15:23:14;6.50;;;4.47;;
62584;SDS011;48643;51.670;5.808;2022-12-18T15:25:58;6.27;;;4.00;;
62584;SDS011;48643;51.670;5.808;2022-12-18T15:28:36;5.97;;;4.07;;
62584;SDS011;48643;51.670;5.808;2022-12-18T15:33:36;8.63;;;4.30;;
62584;SDS011;48643;51.670;5.808;2022-12-18T15:36:08;6.40;;;4.00;;
62584;SDS011;48643;51.670;5.808;2022-12-18T15:38:37;7.43;;;4.10;;
62584;SDS011;48643;51.670;5.808;2022-12-18T15:41:04;6.15;;;4.10;;
62584;SDS011;48643;51.670;5.808;2022-12-18T15:43:38;5.93;;;4.20;;
62584;SDS011;48643;51.670;5.808;2022-12-18T15:46:07;7.78;;;4.22;;
62584;SDS011;48643;51.670;5.808;2022-12-18T15:48:40;10.77;;;4.38;;
62584;SDS011;48643;51.670;5.808;2022-12-18T15:51:22;6.05;;;4.05;;
62584;SDS011;48643;51.670;5.808;2022-12-18T15:53:54;8.27;;;4.13;;
62584;SDS011;48643;51.670;5.808;2022-12-18T15:56:22;6.43;;;4.20;;
62584;SDS011;48643;51.670;5.808;2022-12-18T15:59:09;8.50;;;3.97;;
62584;SDS011;48643;51.670;5.808;2022-12-18T16:01:38;6.32;;;4.00;;
62584;SDS011;48643;51.670;5.808;2022-12-18T16:04:10;6.28;;;4.00;;
62584;SDS011;48643;51.670;5.808;2022-12-18T16:06:38;5.93;;;4.13;;
62584;SDS011;48643;51.670;5.808;2022-12-18T16:09:25;6.05;;;4.07;;
62584;SDS011;48643;51.670;5.808;2022-12-18T16:11:52;8.13;;;4.22;;
62584;SDS011;48643;51.670;5.808;2022-12-18T16:14:20;6.30;;;4.30;;
62584;SDS011;48643;51.670;5.808;2022-12-18T16:16:50;6.78;;;4.10;;
62584;SDS011;48643;51.670;5.808;2022-12-18T16:19:19;6.88;;;4.07;;
62584;SDS011;48643;51.670;5.808;2022-12-18T16:21:47;7.15;;;3.90;;
62584;SDS011;48643;51.670;5.808;2022-12-18T16:24:15;5.55;;;3.88;;
62584;SDS011;48643;51.670;5.808;2022-12-18T16:26:43;7.30;;;4.10;;
62584;SDS011;48643;51.670;5.808;2022-12-18T16:29:10;6.40;;;4.00;;
62584;SDS011;48643;51.670;5.808;2022-12-18T16:31:37;6.20;;;3.92;;
62584;SDS011;48643;51.670;5.808;2022-12-18T16:36:54;7.40;;;4.30;;
62584;SDS011;48643;51.670;5.808;2022-12-18T16:39:30;10.90;;;5.95;;
62584;SDS011;48643;51.670;5.808;2022-12-18T16:41:58;8.93;;;5.00;;
62584;SDS011;48643;51.670;5.808;2022-12-18T16:44:27;9.60;;;5.40;;
62584;SDS011;48643;51.670;5.808;2022-12-18T16:46:54;13.23;;;5.35;;
62584;SDS011;48643;51.670;5.808;2022-12-18T16:49:21;11.40;;;5.45;;
62584;SDS011;48643;51.670;5.808;2022-12-18T16:51:47;13.23;;;4.88;;
62584;SDS011;48643;51.670;5.808;2022-12-18T16:54:14;10.50;;;5.15;;
62584;SDS011;48643;51.670;5.808;2022-12-18T16:56:44;8.85;;;5.03;;
62584;SDS011;48643;51.670;5.808;2022-12-18T16:59:15;17.77;;;7.82;;
62584;SDS011;48643;51.670;5.808;2022-12-18T17:01:43;20.20;;;8.45;;
62584;SDS011;48643;51.670;5.808;2022-12-18T17:04:10;17.95;;;7.93;;
62584;SDS011;48643;51.670;5.808;2022-12-18T17:06:39;17.00;;;7.72;;
62584;SDS011;48643;51.670;5.808;2022-12-18T17:09:09;18.67;;;6.88;;
62584;SDS011;48643;51.670;5.808;2022-12-18T17:11:37;15.05;;;7.10;;
62584;SDS011;48643;51.670;5.808;2022-12-18T17:14:08;17.88;;;7.90;;
62584;SDS011;48643;51.670;5.808;2022-12-18T17:16:38;20.83;;;8.38;;